Time;durP1;ratioP1;P1;durP2;ratioP2;P2;SDS_P1;SDS_P2;PMS_P1;PMS_P2;Temp;Humidity;BMP_temperature;BMP_pressure;BME280_temperature;BME280_humidity;BME280_pressure;Samples;Min_cycle;Max_cycle;Signal;HPM_P1;HPM_P2
2022/08/27 00:01:01;;;;;;;9.10;4.75;;;21.90;99.90;;;;;;10380501;28;20099;-88
2022/08/27 00:06:15;;;;;;;12.00;4.93;;;21.90;99.90;;;;;;10295506;28;20045;-88
2022/08/27 00:11:19;;;;;;;7.43;4.53;;;21.90;99.90;;;;;;10416343;28;20627;-86
2022/08/27 00:16:21;;;;;;;9.48;4.55;;;21.80;99.90;;;;;;10482978;28;20079;-86
2022/08/27 00:21:25;;;;;;;12.15;4.47;;;21.80;99.90;;;;;;10478993;28;20047;-86
2022/08/27 00:26:28;;;;;;;8.98;4.07;;;21.80;99.90;;;;;;10462024;28;20075;-86
2022/08/27 00:31:30;;;;;;;7.55;4.55;;;21.80;99.90;;;;;;10509163;28;20135;-86
2022/08/27 00:36:32;;;;;;;9.43;4.25;;;21.80;99.90;;;;;;10489820;28;20051;-86
2022/08/27 00:41:34;;;;;;;10.68;4.53;;;21.70;99.90;;;;;;10433141;28;20134;-86
2022/08/27 00:46:48;;;;;;;5.97;3.88;;;21.60;99.90;;;;;;10474153;28;20043;-87
2022/08/27 00:51:56;;;;;;;5.80;4.10;;;21.50;99.90;;;;;;10405311;28;20180;-88
2022/08/27 00:57:04;;;;;;;6.57;3.55;;;21.60;99.90;;;;;;10402743;28;20056;-87
2022/08/27 01:02:19;;;;;;;12.00;4.03;;;21.60;99.90;;;;;;10330967;28;20036;-87
2022/08/27 01:07:23;;;;;;;4.85;3.38;;;21.60;99.90;;;;;;10476310;28;22621;-87
2022/08/27 01:12:31;;;;;;;8.88;3.40;;;21.50;99.90;;;;;;10481493;28;20051;-87
2022/08/27 01:17:37;;;;;;;7.50;3.58;;;21.60;99.90;;;;;;10481173;28;20044;-87
2022/08/27 01:22:49;;;;;;;8.80;3.90;;;21.50;99.90;;;;;;10453818;28;20112;-86
2022/08/27 01:27:52;;;;;;;10.80;3.67;;;21.50;99.90;;;;;;10478464;28;20105;-86
2022/08/27 01:32:54;;;;;;;16.85;4.13;;;21.60;99.90;;;;;;10473112;28;20041;-86
2022/08/27 01:37:57;;;;;;;7.25;3.22;;;21.50;99.90;;;;;;10446508;28;20075;-87
2022/08/27 01:43:00;;;;;;;5.30;2.83;;;21.50;99.90;;;;;;10449463;28;20048;-85
2022/08/27 01:48:06;;;;;;;5.78;3.17;;;21.50;99.90;;;;;;10500099;28;20106;-86
2022/08/27 01:53:12;;;;;;;10.88;4.85;;;21.40;99.90;;;;;;10454597;28;20105;-87
2022/08/27 01:58:21;;;;;;;9.10;3.58;;;21.40;99.90;;;;;;10396947;28;20049;-88
2022/08/27 02:03:23;;;;;;;8.57;3.63;;;21.40;99.90;;;;;;10496647;28;20056;-86
2022/08/27 02:08:25;;;;;;;7.18;2.95;;;21.40;99.90;;;;;;10437591;28;20534;-88
2022/08/27 02:13:27;;;;;;;6.28;3.03;;;21.50;99.90;;;;;;10489600;28;20048;-87
2022/08/27 02:18:29;;;;;;;9.40;3.63;;;21.40;99.90;;;;;;10479335;28;20053;-87
2022/08/27 02:23:31;;;;;;;12.07;3.28;;;21.40;99.90;;;;;;10465934;28;20091;-87
2022/08/27 02:28:34;;;;;;;8.50;3.65;;;21.50;99.90;;;;;;10477434;28;20051;-87
2022/08/27 02:33:36;;;;;;;9.75;3.25;;;21.40;99.90;;;;;;10485215;28;20668;-87
2022/08/27 02:38:39;;;;;;;5.85;3.22;;;21.40;99.90;;;;;;10490414;28;20082;-87
2022/08/27 02:43:41;;;;;;;9.38;4.78;;;21.30;99.90;;;;;;10503565;28;20494;-87
2022/08/27 02:48:43;;;;;;;9.68;3.47;;;21.30;99.90;;;;;;10489034;28;20098;-87
2022/08/27 02:53:45;;;;;;;11.80;4.30;;;21.20;99.90;;;;;;10506704;28;20571;-87
2022/08/27 02:58:47;;;;;;;11.25;3.67;;;21.20;99.90;;;;;;10500810;28;20048;-86
2022/08/27 03:03:49;;;;;;;6.35;3.95;;;21.20;99.90;;;;;;10506374;28;20094;-87
2022/08/27 03:08:54;;;;;;;6.25;4.07;;;21.10;99.90;;;;;;10469098;28;20120;-88
2022/08/27 03:13:57;;;;;;;7.35;4.55;;;21.10;99.90;;;;;;10224184;28;20148;-88
2022/08/27 03:18:59;;;;;;;6.43;3.63;;;21.10;99.90;;;;;;10461279;28;20126;-85
2022/08/27 03:24:02;;;;;;;8.48;4.82;;;21.10;99.90;;;;;;10472819;28;20028;-86
2022/08/27 03:29:12;;;;;;;7.95;3.55;;;21.10;99.90;;;;;;10487563;28;20489;-87
2022/08/27 03:34:14;;;;;;;8.48;3.25;;;21.10;99.90;;;;;;10464777;28;20049;-87
2022/08/27 03:39:20;;;;;;;;;;;21.00;99.90;;;;;;10501628;28;20119;-87
2022/08/27 03:44:23;;;;;;;8.85;3.55;;;21.00;99.90;;;;;;10492588;28;19949;-87
2022/08/27 03:49:25;;;;;;;10.65;4.25;;;20.90;99.90;;;;;;10478148;28;20057;-87
2022/08/27 03:54:30;;;;;;;8.77;4.07;;;20.90;99.90;;;;;;10470300;28;20140;-87
2022/08/27 03:59:32;;;;;;;9.00;4.43;;;20.80;99.90;;;;;;10479033;28;20044;-87
2022/08/27 04:04:34;;;;;;;10.68;3.78;;;20.70;99.90;;;;;;10479125;28;20036;-87
2022/08/27 04:09:36;;;;;;;7.30;3.90;;;20.70;99.90;;;;;;10499509;28;20487;-86
2022/08/27 04:14:38;;;;;;;9.15;4.07;;;20.60;99.90;;;;;;10478625;28;20045;-88
2022/08/27 04:19:41;;;;;;;11.98;4.30;;;20.60;99.90;;;;;;10417357;28;20414;-88
2022/08/27 04:24:52;;;;;;;6.18;4.03;;;20.60;99.90;;;;;;10474511;28;20055;-87
2022/08/27 04:29:55;;;;;;;8.93;3.50;;;20.60;99.90;;;;;;10453531;28;20043;-87
2022/08/27 04:34:59;;;;;;;5.65;3.53;;;20.60;99.90;;;;;;10475954;28;20044;-88
2022/08/27 04:40:01;;;;;;;13.57;3.80;;;20.60;99.90;;;;;;10403878;28;20073;-89
2022/08/27 04:45:03;;;;;;;8.23;3.70;;;20.70;99.90;;;;;;10392674;28;20134;-89
2022/08/27 04:50:06;;;;;;;8.98;3.75;;;20.60;99.90;;;;;;10365693;28;20112;-90
2022/08/27 04:55:10;;;;;;;5.47;2.85;;;20.70;99.90;;;;;;10360362;28;20054;-92
2022/08/27 05:00:41;;;;;;;4.22;3.13;;;20.80;99.90;;;;;;10201181;28;20041;-90
2022/08/27 05:05:46;;;;;;;8.88;2.90;;;20.80;99.90;;;;;;10230637;28;20052;-89
2022/08/27 05:10:50;;;;;;;5.40;3.03;;;20.80;99.90;;;;;;10404038;28;20057;-89
2022/08/27 05:16:01;;;;;;;7.72;3.03;;;20.80;99.90;;;;;;10421659;28;21426;-89
2022/08/27 05:21:04;;;;;;;7.88;3.58;;;20.80;99.90;;;;;;10414629;28;20128;-89
2022/08/27 05:26:07;;;;;;;10.02;3.25;;;20.80;99.90;;;;;;10396040;28;20057;-88
2022/08/27 05:31:11;;;;;;;5.57;3.15;;;20.90;99.90;;;;;;10408293;28;20061;-88
2022/08/27 05:36:20;;;;;;;5.93;2.80;;;20.90;99.90;;;;;;10402440;28;20053;-89
2022/08/27 05:41:26;;;;;;;4.88;2.65;;;21.00;99.90;;;;;;10417224;28;20132;-88
2022/08/27 05:46:38;;;;;;;7.35;3.08;;;20.90;99.90;;;;;;10418193;28;20132;-88
2022/08/27 05:51:40;;;;;;;6.93;2.97;;;20.80;99.90;;;;;;10401066;28;20076;-85
2022/08/27 05:56:42;;;;;;;9.23;2.55;;;20.90;99.90;;;;;;10408937;28;20128;-85
2022/08/27 06:01:48;;;;;;;8.20;2.72;;;21.00;99.90;;;;;;10417570;28;20045;-86
2022/08/27 06:06:50;;;;;;;5.32;3.60;;;20.90;99.90;;;;;;10417560;28;20049;-86
2022/08/27 06:11:54;;;;;;;9.10;3.22;;;21.00;99.90;;;;;;10485537;28;22260;-86
2022/08/27 06:16:58;;;;;;;11.77;3.42;;;21.10;99.90;;;;;;10484669;28;20048;-91
2022/08/27 06:22:01;;;;;;;6.25;3.00;;;21.10;99.90;;;;;;10487110;28;20105;-89
2022/08/27 06:27:14;;;;;;;6.88;3.25;;;21.10;99.90;;;;;;10476186;28;20044;-89
2022/08/27 06:32:16;;;;;;;4.30;2.80;;;21.20;99.90;;;;;;10472466;28;20410;-90
2022/08/27 06:37:19;;;;;;;9.38;2.88;;;21.30;99.90;;;;;;10479941;28;20044;-88
2022/08/27 06:42:21;;;;;;;8.35;3.58;;;21.50;99.90;;;;;;10476685;28;20058;-88
2022/08/27 06:47:24;;;;;;;13.27;3.08;;;21.50;99.90;;;;;;10484487;28;20174;-87
2022/08/27 06:52:26;;;;;;;7.68;3.03;;;21.50;99.90;;;;;;10499168;28;20044;-88
2022/08/27 06:57:28;;;;;;;6.25;2.50;;;21.40;99.90;;;;;;10498336;28;20056;-87
2022/08/27 07:02:31;;;;;;;9.13;2.72;;;21.40;99.90;;;;;;10466640;28;20470;-90
2022/08/27 07:07:33;;;;;;;9.43;2.95;;;21.40;99.90;;;;;;10485960;28;20087;-86
2022/08/27 07:12:45;;;;;;;7.53;2.75;;;21.50;99.90;;;;;;10498634;28;20047;-86
2022/08/27 07:17:46;;;;;;;6.05;2.58;;;21.50;99.90;;;;;;10486776;28;20135;-87
2022/08/27 07:22:49;;;;;;;7.93;2.72;;;21.50;99.90;;;;;;10475149;28;20173;-87
2022/08/27 07:27:51;;;;;;;4.85;3.15;;;21.60;99.90;;;;;;10477808;28;20060;-87
2022/08/27 07:32:53;;;;;;;5.28;2.50;;;21.50;99.90;;;;;;10479887;28;20058;-89
2022/08/27 07:37:55;;;;;;;3.15;2.30;;;21.60;99.90;;;;;;10494232;28;20044;-87
2022/08/27 07:48:18;;;;;;;7.63;1.65;;;21.80;99.90;;;;;;10513065;28;20032;-88
2022/08/27 07:53:20;;;;;;;6.78;2.40;;;22.10;99.90;;;;;;10482449;28;20050;-88
2022/08/27 07:58:22;;;;;;;3.72;1.88;;;22.20;99.90;;;;;;10492985;28;20999;-87
2022/08/27 08:03:25;;;;;;;3.75;1.30;;;22.40;99.90;;;;;;10485668;28;20052;-87
2022/08/27 08:08:27;;;;;;;2.58;1.05;;;22.60;99.90;;;;;;10513138;28;20052;-88
2022/08/27 08:13:31;;;;;;;2.38;1.10;;;22.80;99.90;;;;;;10488833;28;20052;-87
2022/08/27 08:18:34;;;;;;;2.05;1.10;;;23.00;99.90;;;;;;10482417;28;20055;-87
2022/08/27 08:23:37;;;;;;;2.22;0.85;;;23.20;99.90;;;;;;10492921;28;20040;-86
2022/08/27 08:28:39;;;;;;;2.30;1.13;;;23.20;99.90;;;;;;10514614;28;20048;-87
2022/08/27 08:33:41;;;;;;;2.75;1.02;;;23.20;99.90;;;;;;10478738;28;20545;-92
2022/08/27 08:38:46;;;;;;;2.72;1.10;;;23.50;99.90;;;;;;10445559;28;20044;-94
2022/08/27 08:43:50;;;;;;;2.75;1.15;;;23.50;99.90;;;;;;10470422;28;20517;-90
2022/08/27 08:48:57;;;;;;;4.43;1.10;;;23.50;99.90;;;;;;10467664;28;20076;-90
2022/08/27 08:54:05;;;;;;;2.65;1.00;;;23.60;99.90;;;;;;10490100;28;20060;-90
2022/08/27 08:59:14;;;;;;;1.75;0.80;;;23.80;99.90;;;;;;10461724;28;20084;-90
2022/08/27 09:04:16;;;;;;;1.70;0.90;;;24.00;99.90;;;;;;10468504;28;20722;-90
2022/08/27 09:09:30;;;;;;;4.07;1.05;;;24.00;99.90;;;;;;10471194;28;20075;-90
2022/08/27 09:14:41;;;;;;;3.83;1.40;;;24.00;99.90;;;;;;10488117;28;20091;-90
2022/08/27 09:19:47;;;;;;;5.50;0.93;;;23.90;99.90;;;;;;10481100;28;20567;-90
2022/08/27 09:25:08;;;;;;;2.30;1.08;;;24.00;99.90;;;;;;10473595;28;20265;-90
2022/08/27 09:30:17;;;;;;;1.95;1.20;;;24.20;99.90;;;;;;10452299;28;20067;-90
2022/08/27 09:35:20;;;;;;;2.88;1.33;;;24.50;99.90;;;;;;10468035;28;20135;-90
2022/08/27 09:40:32;;;;;;;2.80;1.25;;;24.60;99.90;;;;;;10432889;28;20040;-90
2022/08/27 09:45:34;;;;;;;4.10;1.35;;;24.70;99.90;;;;;;10495996;28;20041;-90
2022/08/27 09:50:41;;;;;;;2.95;1.10;;;24.70;99.90;;;;;;10449353;28;20049;-90
2022/08/27 09:55:49;;;;;;;2.22;1.02;;;24.80;99.90;;;;;;10476690;28;20106;-90
2022/08/27 10:01:25;;;;;;;1.88;0.95;;;24.90;99.90;;;;;;10481281;28;20069;-90
2022/08/27 10:06:28;;;;;;;2.28;0.90;;;25.00;99.90;;;;;;10446017;28;20052;-90
2022/08/27 10:11:44;;;;;;;3.10;1.08;;;25.20;99.90;;;;;;10472562;28;20063;-90
2022/08/27 10:16:52;;;;;;;3.28;0.80;;;25.20;99.90;;;;;;10463315;28;20052;-90
2022/08/27 10:22:09;;;;;;;2.10;0.90;;;25.30;99.90;;;;;;10488484;28;20048;-90
2022/08/27 10:27:32;;;;;;;2.40;0.70;;;25.40;99.90;;;;;;10458064;28;20113;-90
2022/08/27 10:32:57;;;;;;;2.20;0.82;;;25.90;99.90;;;;;;10453131;28;20036;-90
2022/08/27 10:38:29;;;;;;;1.05;0.80;;;26.30;99.90;;;;;;10456604;28;20437;-90
2022/08/27 10:43:33;;;;;;;2.25;0.68;;;26.60;99.90;;;;;;10449709;28;20072;-90
2022/08/27 10:49:00;;;;;;;2.38;0.70;;;26.80;99.90;;;;;;10402523;28;20052;-91
2022/08/27 10:54:19;;;;;;;1.15;0.70;;;26.90;99.90;;;;;;10469627;28;20044;-91
2022/08/27 10:59:53;;;;;;;1.15;0.65;;;27.10;99.90;;;;;;10462419;28;20102;-82
2022/08/27 11:05:11;;;;;;;2.88;1.17;;;27.10;99.90;;;;;;10495609;28;20043;-81
2022/08/27 11:10:27;;;;;;;1.42;0.88;;;27.10;99.90;;;;;;10490282;28;20051;-81
2022/08/27 11:15:33;;;;;;;1.30;1.13;;;27.20;99.90;;;;;;10495633;28;20059;-81
2022/08/27 11:20:56;;;;;;;1.70;1.13;;;27.00;99.90;;;;;;10490321;28;20501;-81
2022/08/27 11:26:03;;;;;;;1.05;0.70;;;26.70;99.90;;;;;;10483105;28;20038;-81
2022/08/27 11:31:19;;;;;;;0.82;0.70;;;26.80;99.90;;;;;;10474229;28;20085;-79
2022/08/27 11:36:27;;;;;;;6.47;1.10;;;26.70;99.90;;;;;;10496687;28;20530;-80
2022/08/27 11:41:47;;;;;;;3.13;1.10;;;26.70;99.90;;;;;;10499775;28;20099;-81
2022/08/27 11:46:56;;;;;;;2.15;0.95;;;26.60;99.90;;;;;;10496666;28;20488;-81
2022/08/27 11:52:02;;;;;;;3.38;1.00;;;26.60;99.90;;;;;;10484185;28;20055;-84
2022/08/27 11:57:12;;;;;;;;;;;26.40;99.90;;;;;;10485885;28;20494;-83
2022/08/27 12:02:24;;;;;;;1.17;0.90;;;26.40;99.90;;;;;;10495162;28;19920;-83
2022/08/27 12:07:32;;;;;;;1.65;1.10;;;26.30;99.90;;;;;;10446992;28;1071232;-83
2022/08/27 12:12:51;;;;;;;3.88;1.10;;;26.20;99.90;;;;;;10509910;28;20099;-83
2022/08/27 12:18:24;;;;;;;1.50;1.00;;;26.30;99.90;;;;;;10507751;28;20813;-83
2022/08/27 12:23:40;;;;;;;2.03;0.90;;;26.30;99.90;;;;;;10493976;28;20139;-83
2022/08/27 12:28:43;;;;;;;3.83;1.27;;;26.40;99.90;;;;;;10502946;28;20074;-84
2022/08/27 12:33:48;;;;;;;5.72;1.20;;;26.40;99.90;;;;;;10491431;28;20059;-83
2022/08/27 12:38:53;;;;;;;2.10;1.05;;;26.30;99.90;;;;;;10511104;28;20055;-83
2022/08/27 12:44:22;;;;;;;1.63;0.93;;;26.30;99.90;;;;;;10514954;28;20050;-83
2022/08/27 12:49:35;;;;;;;4.25;1.27;;;26.20;99.90;;;;;;10498187;28;20293;-83
2022/08/27 12:55:04;;;;;;;1.25;0.80;;;26.10;99.90;;;;;;10487418;28;20056;-83
2022/08/27 13:00:09;;;;;;;;;;;26.10;99.90;;;;;;10484008;28;20045;-83
2022/08/27 13:05:16;;;;;;;4.47;1.20;;;26.00;99.90;;;;;;10499559;28;19926;-83
2022/08/27 13:10:27;;;;;;;1.52;0.80;;;26.10;99.90;;;;;;10487079;28;20052;-82
2022/08/27 13:15:30;;;;;;;1.95;0.88;;;26.40;99.90;;;;;;10485575;28;20458;-81
2022/08/27 13:20:37;;;;;;;3.70;1.00;;;26.60;99.90;;;;;;10490934;28;20100;-82
2022/08/27 13:25:39;;;;;;;4.75;1.02;;;27.00;99.90;;;;;;10489771;28;20053;-83
2022/08/27 13:30:45;;;;;;;2.88;0.90;;;27.10;99.90;;;;;;10490231;28;20116;-81
2022/08/27 13:35:47;;;;;;;3.17;1.13;;;27.70;99.90;;;;;;10479330;28;20119;-82
2022/08/27 13:40:58;;;;;;;3.40;1.52;;;28.20;99.30;;;;;;10506974;28;20052;-82
2022/08/27 13:46:04;;;;;;;3.17;0.80;;;28.30;99.30;;;;;;10488137;28;20501;-83
2022/08/27 13:51:07;;;;;;;1.00;0.75;;;28.40;98.70;;;;;;10487334;28;20040;-83
2022/08/27 13:56:10;;;;;;;3.63;0.98;;;28.50;98.00;;;;;;10479483;28;20044;-80
2022/08/27 14:01:22;;;;;;;1.75;0.90;;;28.80;98.00;;;;;;10502129;28;20044;-80
2022/08/27 14:06:33;;;;;;;3.08;1.90;;;28.70;97.60;;;;;;10498733;28;20055;-80
2022/08/27 14:11:37;;;;;;;3.08;0.98;;;28.00;97.70;;;;;;10511184;28;20039;-80
2022/08/27 14:16:39;;;;;;;1.40;0.90;;;27.20;98.40;;;;;;10516030;28;20054;-81
2022/08/27 14:21:44;;;;;;;3.17;1.17;;;27.20;98.60;;;;;;10498817;28;20047;-80
2022/08/27 14:27:00;;;;;;;1.48;0.80;;;27.10;98.90;;;;;;10499604;28;20050;-79
2022/08/27 14:32:03;;;;;;;5.55;1.30;;;26.90;98.80;;;;;;10497635;28;20076;-80
2022/08/27 14:37:05;;;;;;;1.92;1.13;;;26.60;99.20;;;;;;10511758;28;20490;-80
2022/08/27 14:42:08;;;;;;;1.67;0.90;;;26.50;99.70;;;;;;10478837;28;20054;-79
2022/08/27 14:47:11;;;;;;;3.28;1.13;;;26.50;99.70;;;;;;10494701;28;20055;-80
2022/08/27 14:52:14;;;;;;;10.93;1.10;;;26.40;99.90;;;;;;10514246;28;20068;-78
2022/08/27 14:57:16;;;;;;;2.00;0.77;;;26.20;99.80;;;;;;10512472;28;20105;-80
2022/08/27 15:02:19;;;;;;;1.33;1.05;;;26.20;99.90;;;;;;10491329;28;20466;-79
2022/08/27 15:07:21;;;;;;;2.22;0.93;;;26.10;99.90;;;;;;10491605;28;20052;-79
2022/08/27 15:12:24;;;;;;;3.95;0.93;;;26.00;99.90;;;;;;10493214;28;20218;-79
2022/08/27 15:17:27;;;;;;;4.25;1.55;;;26.00;99.90;;;;;;10495351;28;20052;-79
2022/08/27 15:22:38;;;;;;;2.10;1.10;;;25.90;99.90;;;;;;10482008;28;20112;-79
2022/08/27 15:27:44;;;;;;;3.38;1.50;;;26.00;99.90;;;;;;10502629;28;20126;-79
2022/08/27 15:32:47;;;;;;;2.28;1.30;;;26.30;99.90;;;;;;10470781;28;20068;-79
2022/08/27 15:37:49;;;;;;;3.85;1.75;;;26.20;99.90;;;;;;10506770;28;20087;-79
2022/08/27 15:42:56;;;;;;;1.85;1.00;;;26.20;99.90;;;;;;10465498;28;20104;-80
2022/08/27 15:47:58;;;;;;;1.70;1.00;;;26.30;99.90;;;;;;10465555;28;20102;-80
2022/08/27 15:53:05;;;;;;;6.32;0.98;;;26.40;99.90;;;;;;10489804;28;20482;-80
2022/08/27 15:58:07;;;;;;;2.47;0.68;;;26.40;99.90;;;;;;10506897;28;20393;-79
2022/08/27 16:03:14;;;;;;;3.40;0.88;;;26.40;99.90;;;;;;10483938;28;20119;-90
2022/08/27 16:08:31;;;;;;;1.95;0.60;;;26.40;99.90;;;;;;10231269;28;20052;-90
2022/08/27 16:13:39;;;;;;;4.20;0.90;;;26.10;99.90;;;;;;10400726;28;20135;-91
2022/08/27 16:18:41;;;;;;;4.55;0.80;;;25.90;99.90;;;;;;10466279;28;20049;-90
2022/08/27 16:23:43;;;;;;;3.47;0.80;;;26.00;99.90;;;;;;10465296;28;20089;-91
2022/08/27 16:28:46;;;;;;;2.42;0.98;;;25.80;99.90;;;;;;10484663;28;20074;-88
2022/08/27 16:33:48;;;;;;;1.63;0.95;;;25.60;99.90;;;;;;10500826;28;20105;-88
2022/08/27 16:38:50;;;;;;;3.17;1.05;;;25.60;99.90;;;;;;10446232;28;20045;-87
2022/08/27 16:43:52;;;;;;;4.40;0.70;;;25.50;99.90;;;;;;10483670;28;20032;-87
2022/08/27 16:54:15;;;;;;;1.30;0.77;;;25.30;99.90;;;;;;10449830;28;20143;-88
2022/08/27 16:59:17;;;;;;;1.90;0.60;;;25.10;99.90;;;;;;10470383;28;20040;-88
2022/08/27 17:04:20;;;;;;;1.40;0.82;;;24.90;99.90;;;;;;10469623;28;20391;-87
2022/08/27 17:09:33;;;;;;;1.88;0.70;;;24.70;99.90;;;;;;10469665;28;20041;-87
2022/08/27 17:14:36;;;;;;;4.28;0.98;;;24.60;99.90;;;;;;10466503;28;20045;-88
2022/08/27 17:19:39;;;;;;;6.43;0.90;;;24.30;99.90;;;;;;10475774;28;20084;-87
2022/08/27 17:24:41;;;;;;;0.60;0.60;;;24.10;99.90;;;;;;10465825;28;20137;-88
2022/08/27 17:29:42;;;;;;;0.95;0.52;;;24.00;99.90;;;;;;10468538;28;20049;-89
2022/08/27 17:34:44;;;;;;;3.10;0.70;;;23.80;99.90;;;;;;10465034;28;20048;-90
2022/08/27 17:39:47;;;;;;;2.05;0.70;;;23.70;99.90;;;;;;10468953;28;20105;-90
2022/08/27 17:44:49;;;;;;;1.70;0.70;;;23.60;99.90;;;;;;10479356;28;20110;-90
2022/08/27 17:49:51;;;;;;;2.35;0.75;;;23.60;99.90;;;;;;10453309;28;20032;-84
2022/08/27 17:54:55;;;;;;;3.55;0.88;;;23.50;99.90;;;;;;10465914;28;20040;-86
2022/08/27 17:59:57;;;;;;;1.52;0.77;;;23.50;99.90;;;;;;10466197;28;20048;-88
2022/08/27 18:05:09;;;;;;;2.05;0.70;;;23.40;99.90;;;;;;10471455;28;20048;-86
2022/08/27 18:10:14;;;;;;;1.80;1.00;;;23.20;99.90;;;;;;10502179;28;20051;-87
2022/08/27 18:15:28;;;;;;;2.40;0.90;;;23.20;99.90;;;;;;10489771;28;20083;-87
2022/08/27 18:20:31;;;;;;;2.42;0.73;;;23.00;99.90;;;;;;10492796;28;20105;-87
2022/08/27 18:25:35;;;;;;;4.72;0.90;;;22.90;99.90;;;;;;10486484;28;20048;-87
2022/08/27 18:30:40;;;;;;;3.85;1.08;;;22.90;99.90;;;;;;10486628;28;20044;-86
2022/08/27 18:35:42;;;;;;;2.63;0.77;;;22.80;99.90;;;;;;10472401;28;20045;-86
2022/08/27 18:40:48;;;;;;;3.00;0.90;;;22.70;99.90;;;;;;10481412;28;20072;-87
2022/08/27 18:45:52;;;;;;;3.15;0.73;;;22.60;99.90;;;;;;10505219;28;20738;-86
2022/08/27 18:50:57;;;;;;;1.67;0.80;;;22.50;99.90;;;;;;10472571;28;20153;-86
2022/08/27 18:56:00;;;;;;;2.60;0.65;;;22.40;99.90;;;;;;10503014;28;20048;-85
2022/08/27 19:01:03;;;;;;;3.95;0.70;;;22.40;99.90;;;;;;10497799;28;20082;-86
2022/08/27 19:06:06;;;;;;;2.67;0.80;;;22.30;99.90;;;;;;10466602;28;20509;-86
2022/08/27 19:11:11;;;;;;;1.52;0.60;;;22.20;99.90;;;;;;10485558;28;20040;-86
2022/08/27 19:16:18;;;;;;;2.70;0.60;;;22.20;99.90;;;;;;10471470;28;20116;-87
2022/08/27 19:21:20;;;;;;;3.28;0.85;;;22.10;99.90;;;;;;10465244;28;20067;-87
2022/08/27 19:26:24;;;;;;;3.33;0.70;;;22.10;99.90;;;;;;10457599;28;20060;-81
2022/08/27 19:31:27;;;;;;;3.78;0.70;;;22.00;99.90;;;;;;10471930;28;20056;-81
2022/08/27 19:36:32;;;;;;;1.73;0.75;;;21.90;99.90;;;;;;10481000;28;20054;-81
2022/08/27 19:41:34;;;;;;;4.55;0.65;;;21.70;99.90;;;;;;10464668;28;20095;-85
2022/08/27 19:46:36;;;;;;;3.05;0.60;;;21.60;99.90;;;;;;10444140;28;20052;-84
2022/08/27 19:51:38;;;;;;;2.35;0.70;;;21.50;99.90;;;;;;10476034;28;20104;-84
2022/08/27 19:56:40;;;;;;;3.97;0.60;;;21.40;99.90;;;;;;10449590;28;20068;-83
2022/08/27 20:01:42;;;;;;;3.95;0.65;;;21.30;99.90;;;;;;10478761;28;20692;-85
2022/08/27 20:06:44;;;;;;;3.28;0.60;;;21.30;99.90;;;;;;10463071;28;20071;-84
2022/08/27 20:11:49;;;;;;;2.33;0.77;;;21.20;99.90;;;;;;10466132;28;20049;-85
2022/08/27 20:16:51;;;;;;;1.92;0.73;;;21.10;99.90;;;;;;10454670;28;20053;-78
2022/08/27 20:21:53;;;;;;;1.30;0.57;;;21.00;99.90;;;;;;10453293;28;20438;-79
2022/08/27 20:26:56;;;;;;;3.63;0.68;;;20.90;99.90;;;;;;10449699;28;20052;-77
2022/08/27 20:31:58;;;;;;;1.80;0.70;;;20.80;99.90;;;;;;10443446;28;20055;-78
2022/08/27 20:37:01;;;;;;;2.20;0.98;;;20.80;99.90;;;;;;10459151;28;20049;-80
2022/08/27 20:42:04;;;;;;;2.53;0.82;;;20.80;99.90;;;;;;10458979;28;20120;-80
2022/08/27 20:47:09;;;;;;;1.80;0.70;;;20.70;99.90;;;;;;10446963;28;20143;-79
2022/08/27 20:52:11;;;;;;;1.80;0.82;;;20.70;99.90;;;;;;10471263;28;20052;-79
2022/08/27 20:57:14;;;;;;;1.90;0.70;;;20.60;99.90;;;;;;10460809;28;20117;-78
2022/08/27 21:02:21;;;;;;;2.75;0.60;;;20.50;99.90;;;;;;10452005;28;20063;-79
2022/08/27 21:07:24;;;;;;;2.35;0.70;;;20.50;99.90;;;;;;10463944;28;20049;-79
2022/08/27 21:12:27;;;;;;;2.53;0.50;;;20.40;99.90;;;;;;10461052;28;20590;-78
2022/08/27 21:17:29;;;;;;;2.20;0.88;;;20.30;99.90;;;;;;10460172;28;20072;-78
2022/08/27 21:22:31;;;;;;;3.65;0.60;;;20.10;99.90;;;;;;10443601;28;20058;-78
2022/08/27 21:27:34;;;;;;;2.55;0.75;;;20.10;99.90;;;;;;10449032;28;20047;-79
2022/08/27 21:32:36;;;;;;;3.45;1.20;;;20.00;99.90;;;;;;10457970;28;20079;-79
2022/08/27 21:37:40;;;;;;;2.63;0.70;;;19.80;99.90;;;;;;10452928;28;20059;-79
2022/08/27 21:42:42;;;;;;;2.85;0.70;;;19.80;99.90;;;;;;10462874;28;20045;-80
2022/08/27 21:47:44;;;;;;;3.17;0.57;;;19.60;99.90;;;;;;10457659;28;20510;-79
2022/08/27 21:52:46;;;;;;;1.70;0.60;;;19.60;99.90;;;;;;10447262;28;20048;-79
2022/08/27 21:57:47;;;;;;;4.57;0.70;;;19.40;99.90;;;;;;10456005;28;20045;-79
2022/08/27 22:02:50;;;;;;;3.45;0.70;;;19.30;99.90;;;;;;10446674;28;20163;-79
2022/08/27 22:07:52;;;;;;;3.05;1.30;;;19.20;99.90;;;;;;10463308;28;20064;-79
2022/08/27 22:12:54;;;;;;;2.05;0.98;;;19.20;99.90;;;;;;10450547;28;20546;-78
2022/08/27 22:18:01;;;;;;;1.90;0.82;;;19.10;99.90;;;;;;10484983;28;20075;-78
2022/08/27 22:23:09;;;;;;;1.38;0.80;;;19.00;99.90;;;;;;10491679;28;20059;-79
2022/08/27 22:28:12;;;;;;;2.28;0.68;;;19.00;99.90;;;;;;10488622;28;20052;-79
2022/08/27 22:33:15;;;;;;;1.88;0.90;;;18.90;99.90;;;;;;10491104;28;20047;-79
2022/08/27 22:38:17;;;;;;;5.47;0.93;;;18.90;99.90;;;;;;10476576;28;20056;-79
2022/08/27 22:43:18;;;;;;;1.60;0.77;;;18.80;99.90;;;;;;10455276;28;20051;-78
2022/08/27 22:48:20;;;;;;;3.03;0.82;;;18.80;99.90;;;;;;10488329;28;20040;-78
2022/08/27 22:53:22;;;;;;;1.92;0.95;;;18.80;99.90;;;;;;10493295;28;20068;-78
2022/08/27 22:58:25;;;;;;;3.85;0.98;;;18.60;99.90;;;;;;10472831;28;20040;-78
2022/08/27 23:03:27;;;;;;;4.15;1.10;;;18.60;99.90;;;;;;10482399;28;20060;-78
2022/08/27 23:08:30;;;;;;;2.28;0.73;;;18.50;99.90;;;;;;10490040;28;20052;-79
2022/08/27 23:13:33;;;;;;;1.30;0.60;;;18.50;99.90;;;;;;10451440;28;20044;-76
2022/08/27 23:18:35;;;;;;;2.30;0.98;;;18.50;99.90;;;;;;10473606;28;20052;-78
2022/08/27 23:23:39;;;;;;;1.63;0.80;;;18.40;99.90;;;;;;10483041;28;20402;-78
2022/08/27 23:28:40;;;;;;;4.05;1.65;;;18.40;99.90;;;;;;10497851;28;20331;-77
2022/08/27 23:33:42;;;;;;;2.97;1.00;;;18.40;99.90;;;;;;10496068;28;20040;-79
2022/08/27 23:38:45;;;;;;;3.45;0.95;;;18.30;99.90;;;;;;10501040;28;20048;-79
2022/08/27 23:43:48;;;;;;;3.08;0.90;;;18.30;99.90;;;;;;10483138;28;20048;-79
2022/08/27 23:48:49;;;;;;;1.48;0.73;;;18.30;99.90;;;;;;10472038;28;20056;-78
2022/08/27 23:53:51;;;;;;;2.13;0.98;;;18.30;99.90;;;;;;10503927;28;20056;-79
2022/08/27 23:58:54;;;;;;;3.25;0.85;;;18.30;99.90;;;;;;10499126;28;20045;-79
